Portada
METAR-TAF:

METAR-TAF

Aeropuertos :

Aeropuerto de Yakutsk

Yakutsk, Rusia

latitud: 62-01N, longitud: 129-43E, altitud: 103 m

Observación

El informe se hizo hace 37 minutos, a las 12:30 UTC
Viento 4 kt del norte-noroeste
Temperatura -39°C
Humedad 65%
Presión 1013 hPa
Visibilidad: 0450 m
niebla

METAR: UEEE 171230Z 34002MPS 0450 R23L/1100N FG NSC M39/M43 Q1013 R23L/450149 NOSIG RMK QFE751

Hora: 22:07 (13:07 UTC)

Pronóstico

El informe se hizo hace 2 horas y 7 minutos, a las 11:00 UTC
Pronóstico válido del 17 a las 12 UTC al 18 a las 18 UTC
Viento 2 kt con dirección variable
Visibilidad: 0300 m
a una altura de 200 ft
niebla
Temporalmente
del 17 a las 12 UTC al 18 a las 03 UTC
Visibilidad: 0700 m
niebla

TAF: UEEE 171100Z 1712/1818 VRB01MPS 0300 FG VV002 TXM36/1806Z TNM43/1723Z TEMPO 1712/1803 0700 FG NSC

Observaciones y pronósticos meteorológicos de más de 4000 aeropuertos (mensajes METAR y TAF).

Los puntos amarillos y rojos representan las estaciones disponibles.

Ponga el ratón en el punto deseado para ver el nombre de la estación.

Haga clic para ver las observaciones y los pronósticos meteorológicos.

Para cambiar el mapa : haga clic en los botones verdes con una cruz de color negro para hacer un zoom, en el botón verde con un guión para alejar o en las flechas verdes para mapas adyacentes.


METAR-TAF: